sensor_id;sensor_type;location;lat;lon;timestamp;P1;durP1;ratioP1;P2;durP2;ratioP2
11791;SDS011;5953;52.372;9.918;2024-03-02T00:01:44;16.20;;;11.60;;
11791;SDS011;5953;52.372;9.918;2024-03-02T00:04:12;13.77;;;11.30;;
11791;SDS011;5953;52.372;9.918;2024-03-02T00:06:39;16.50;;;11.67;;
11791;SDS011;5953;52.372;9.918;2024-03-02T00:09:09;15.63;;;11.17;;
11791;SDS011;5953;52.372;9.918;2024-03-02T00:11:39;13.13;;;10.60;;
11791;SDS011;5953;52.372;9.918;2024-03-02T00:14:06;14.00;;;10.87;;
11791;SDS011;5953;52.372;9.918;2024-03-02T00:16:35;15.93;;;11.10;;
11791;SDS011;5953;52.372;9.918;2024-03-02T00:19:03;14.93;;;10.60;;
11791;SDS011;5953;52.372;9.918;2024-03-02T00:21:33;15.47;;;11.80;;
11791;SDS011;5953;52.372;9.918;2024-03-02T00:24:01;14.83;;;11.43;;
11791;SDS011;5953;52.372;9.918;2024-03-02T00:26:44;15.03;;;11.17;;
11791;SDS011;5953;52.372;9.918;2024-03-02T00:29:13;15.60;;;12.17;;
11791;SDS011;5953;52.372;9.918;2024-03-02T00:31:45;15.90;;;11.97;;
11791;SDS011;5953;52.372;9.918;2024-03-02T00:34:14;15.83;;;12.23;;
11791;SDS011;5953;52.372;9.918;2024-03-02T00:36:43;14.53;;;12.17;;
11791;SDS011;5953;52.372;9.918;2024-03-02T00:39:12;17.03;;;12.23;;
11791;SDS011;5953;52.372;9.918;2024-03-02T00:41:42;17.13;;;12.27;;
11791;SDS011;5953;52.372;9.918;2024-03-02T00:44:12;15.57;;;11.63;;
11791;SDS011;5953;52.372;9.918;2024-03-02T00:46:40;18.53;;;12.37;;
11791;SDS011;5953;52.372;9.918;2024-03-02T00:49:11;16.40;;;12.43;;
11791;SDS011;5953;52.372;9.918;2024-03-02T00:51:46;15.87;;;12.40;;
11791;SDS011;5953;52.372;9.918;2024-03-02T00:54:15;18.53;;;14.17;;
11791;SDS011;5953;52.372;9.918;2024-03-02T00:56:46;19.10;;;14.03;;
11791;SDS011;5953;52.372;9.918;2024-03-02T00:59:16;17.80;;;13.27;;
11791;SDS011;5953;52.372;9.918;2024-03-02T01:01:44;17.57;;;13.83;;
11791;SDS011;5953;52.372;9.918;2024-03-02T01:04:12;21.77;;;14.83;;
11791;SDS011;5953;52.372;9.918;2024-03-02T01:06:41;19.37;;;13.93;;
11791;SDS011;5953;52.372;9.918;2024-03-02T01:09:09;18.73;;;13.47;;
11791;SDS011;5953;52.372;9.918;2024-03-02T01:11:38;20.93;;;13.80;;
11791;SDS011;5953;52.372;9.918;2024-03-02T01:14:07;19.77;;;13.00;;
11791;SDS011;5953;52.372;9.918;2024-03-02T01:16:36;20.93;;;14.30;;
11791;SDS011;5953;52.372;9.918;2024-03-02T01:19:04;21.03;;;14.47;;
11791;SDS011;5953;52.372;9.918;2024-03-02T01:21:32;19.07;;;14.47;;
11791;SDS011;5953;52.372;9.918;2024-03-02T01:24:00;20.70;;;14.97;;
11791;SDS011;5953;52.372;9.918;2024-03-02T01:26:28;19.33;;;14.67;;
11791;SDS011;5953;52.372;9.918;2024-03-02T01:28:57;21.43;;;13.63;;
11791;SDS011;5953;52.372;9.918;2024-03-02T01:31:24;19.43;;;14.23;;
11791;SDS011;5953;52.372;9.918;2024-03-02T01:33:54;21.10;;;14.90;;
11791;SDS011;5953;52.372;9.918;2024-03-02T01:36:22;20.10;;;13.60;;
11791;SDS011;5953;52.372;9.918;2024-03-02T01:38:50;23.13;;;15.57;;
11791;SDS011;5953;52.372;9.918;2024-03-02T01:41:18;24.20;;;15.53;;
11791;SDS011;5953;52.372;9.918;2024-03-02T01:43:45;20.47;;;14.13;;
11791;SDS011;5953;52.372;9.918;2024-03-02T01:46:13;17.50;;;13.80;;
11791;SDS011;5953;52.372;9.918;2024-03-02T01:48:41;19.27;;;13.67;;
11791;SDS011;5953;52.372;9.918;2024-03-02T01:51:10;19.87;;;14.73;;
11791;SDS011;5953;52.372;9.918;2024-03-02T01:53:38;20.27;;;14.27;;
11791;SDS011;5953;52.372;9.918;2024-03-02T01:56:06;18.30;;;14.03;;
11791;SDS011;5953;52.372;9.918;2024-03-02T01:58:33;18.53;;;14.10;;
11791;SDS011;5953;52.372;9.918;2024-03-02T02:01:02;19.97;;;14.20;;
11791;SDS011;5953;52.372;9.918;2024-03-02T02:03:30;21.37;;;14.90;;
11791;SDS011;5953;52.372;9.918;2024-03-02T02:05:58;21.93;;;15.67;;
11791;SDS011;5953;52.372;9.918;2024-03-02T02:08:27;20.60;;;14.77;;
11791;SDS011;5953;52.372;9.918;2024-03-02T02:10:55;17.83;;;13.93;;
11791;SDS011;5953;52.372;9.918;2024-03-02T02:13:23;20.53;;;14.73;;
11791;SDS011;5953;52.372;9.918;2024-03-02T02:15:51;22.40;;;15.57;;
11791;SDS011;5953;52.372;9.918;2024-03-02T02:18:19;20.93;;;14.60;;
11791;SDS011;5953;52.372;9.918;2024-03-02T02:20:47;22.57;;;16.10;;
11791;SDS011;5953;52.372;9.918;2024-03-02T02:23:16;24.50;;;16.53;;
11791;SDS011;5953;52.372;9.918;2024-03-02T02:25:44;24.03;;;15.77;;
11791;SDS011;5953;52.372;9.918;2024-03-02T02:28:12;25.40;;;17.17;;
11791;SDS011;5953;52.372;9.918;2024-03-02T02:30:40;24.47;;;15.57;;
11791;SDS011;5953;52.372;9.918;2024-03-02T02:33:09;23.07;;;15.67;;
11791;SDS011;5953;52.372;9.918;2024-03-02T02:35:37;21.73;;;15.27;;
11791;SDS011;5953;52.372;9.918;2024-03-02T02:38:04;23.53;;;16.73;;
11791;SDS011;5953;52.372;9.918;2024-03-02T02:40:34;21.30;;;15.80;;
11791;SDS011;5953;52.372;9.918;2024-03-02T02:43:02;25.03;;;16.63;;
11791;SDS011;5953;52.372;9.918;2024-03-02T02:45:30;20.87;;;16.23;;
11791;SDS011;5953;52.372;9.918;2024-03-02T02:47:57;24.87;;;16.77;;
11791;SDS011;5953;52.372;9.918;2024-03-02T02:50:27;25.50;;;16.07;;
11791;SDS011;5953;52.372;9.918;2024-03-02T02:52:55;23.13;;;15.83;;
11791;SDS011;5953;52.372;9.918;2024-03-02T02:55:23;24.37;;;16.57;;
11791;SDS011;5953;52.372;9.918;2024-03-02T02:57:52;24.97;;;15.53;;
11791;SDS011;5953;52.372;9.918;2024-03-02T03:00:20;22.37;;;14.83;;
11791;SDS011;5953;52.372;9.918;2024-03-02T03:02:49;21.80;;;15.00;;
11791;SDS011;5953;52.372;9.918;2024-03-02T03:05:17;22.40;;;15.23;;
11791;SDS011;5953;52.372;9.918;2024-03-02T03:07:45;22.20;;;13.77;;
11791;SDS011;5953;52.372;9.918;2024-03-02T03:10:14;19.17;;;14.57;;
11791;SDS011;5953;52.372;9.918;2024-03-02T03:12:43;23.57;;;15.00;;
11791;SDS011;5953;52.372;9.918;2024-03-02T03:15:12;21.30;;;14.00;;
11791;SDS011;5953;52.372;9.918;2024-03-02T03:17:40;19.67;;;13.23;;
11791;SDS011;5953;52.372;9.918;2024-03-02T03:20:08;20.27;;;15.13;;
11791;SDS011;5953;52.372;9.918;2024-03-02T03:22:37;19.40;;;14.00;;
11791;SDS011;5953;52.372;9.918;2024-03-02T03:25:05;21.97;;;14.00;;
11791;SDS011;5953;52.372;9.918;2024-03-02T03:27:34;19.40;;;14.33;;
11791;SDS011;5953;52.372;9.918;2024-03-02T03:30:03;23.77;;;15.07;;
11791;SDS011;5953;52.372;9.918;2024-03-02T03:32:34;23.97;;;14.93;;
11791;SDS011;5953;52.372;9.918;2024-03-02T03:35:02;22.97;;;14.83;;
11791;SDS011;5953;52.372;9.918;2024-03-02T03:37:30;20.83;;;14.73;;
11791;SDS011;5953;52.372;9.918;2024-03-02T03:40:04;21.03;;;14.43;;
11791;SDS011;5953;52.372;9.918;2024-03-02T03:42:37;21.53;;;14.67;;
11791;SDS011;5953;52.372;9.918;2024-03-02T03:45:06;22.60;;;16.00;;
11791;SDS011;5953;52.372;9.918;2024-03-02T03:47:35;20.90;;;15.20;;
11791;SDS011;5953;52.372;9.918;2024-03-02T03:50:04;20.50;;;14.37;;
11791;SDS011;5953;52.372;9.918;2024-03-02T03:52:34;22.67;;;15.07;;
11791;SDS011;5953;52.372;9.918;2024-03-02T03:55:01;24.10;;;15.60;;
11791;SDS011;5953;52.372;9.918;2024-03-02T03:57:30;22.73;;;15.20;;
11791;SDS011;5953;52.372;9.918;2024-03-02T03:59:58;19.87;;;14.53;;
11791;SDS011;5953;52.372;9.918;2024-03-02T04:02:26;20.17;;;14.37;;
11791;SDS011;5953;52.372;9.918;2024-03-02T04:04:56;20.40;;;15.03;;
11791;SDS011;5953;52.372;9.918;2024-03-02T04:07:23;22.97;;;15.40;;
11791;SDS011;5953;52.372;9.918;2024-03-02T04:09:51;20.53;;;14.97;;
11791;SDS011;5953;52.372;9.918;2024-03-02T04:12:19;20.90;;;13.80;;
11791;SDS011;5953;52.372;9.918;2024-03-02T04:14:47;23.47;;;16.37;;
11791;SDS011;5953;52.372;9.918;2024-03-02T04:17:15;21.63;;;15.00;;
11791;SDS011;5953;52.372;9.918;2024-03-02T04:19:42;21.07;;;14.97;;
11791;SDS011;5953;52.372;9.918;2024-03-02T04:22:11;21.33;;;13.93;;
11791;SDS011;5953;52.372;9.918;2024-03-02T04:24:50;22.37;;;15.60;;
11791;SDS011;5953;52.372;9.918;2024-03-02T04:27:18;24.37;;;16.03;;
11791;SDS011;5953;52.372;9.918;2024-03-02T04:29:46;21.80;;;14.40;;
11791;SDS011;5953;52.372;9.918;2024-03-02T04:32:13;22.40;;;15.20;;
11791;SDS011;5953;52.372;9.918;2024-03-02T04:34:41;22.70;;;15.87;;
11791;SDS011;5953;52.372;9.918;2024-03-02T04:37:10;28.47;;;16.83;;
11791;SDS011;5953;52.372;9.918;2024-03-02T04:39:40;20.83;;;15.60;;
11791;SDS011;5953;52.372;9.918;2024-03-02T04:42:08;21.87;;;16.40;;
11791;SDS011;5953;52.372;9.918;2024-03-02T04:44:36;22.80;;;16.60;;
11791;SDS011;5953;52.372;9.918;2024-03-02T04:47:04;20.03;;;14.57;;
11791;SDS011;5953;52.372;9.918;2024-03-02T04:49:32;23.27;;;15.23;;
11791;SDS011;5953;52.372;9.918;2024-03-02T04:52:00;20.37;;;14.47;;
11791;SDS011;5953;52.372;9.918;2024-03-02T04:54:29;22.23;;;15.53;;
11791;SDS011;5953;52.372;9.918;2024-03-02T04:56:57;24.03;;;15.23;;
11791;SDS011;5953;52.372;9.918;2024-03-02T04:59:25;20.83;;;14.33;;
11791;SDS011;5953;52.372;9.918;2024-03-02T05:01:53;23.57;;;15.67;;
11791;SDS011;5953;52.372;9.918;2024-03-02T05:04:21;23.77;;;15.40;;
11791;SDS011;5953;52.372;9.918;2024-03-02T05:06:49;21.07;;;14.33;;
11791;SDS011;5953;52.372;9.918;2024-03-02T05:09:19;21.83;;;14.60;;
11791;SDS011;5953;52.372;9.918;2024-03-02T05:11:49;19.93;;;13.77;;
11791;SDS011;5953;52.372;9.918;2024-03-02T05:14:40;22.40;;;14.93;;
11791;SDS011;5953;52.372;9.918;2024-03-02T05:17:07;21.63;;;14.30;;
11791;SDS011;5953;52.372;9.918;2024-03-02T05:19:36;20.53;;;14.40;;
11791;SDS011;5953;52.372;9.918;2024-03-02T05:22:04;21.97;;;14.50;;
11791;SDS011;5953;52.372;9.918;2024-03-02T05:24:32;22.17;;;14.67;;
11791;SDS011;5953;52.372;9.918;2024-03-02T05:27:02;18.57;;;12.83;;
11791;SDS011;5953;52.372;9.918;2024-03-02T05:29:30;22.10;;;14.33;;
11791;SDS011;5953;52.372;9.918;2024-03-02T05:31:58;21.80;;;13.80;;
11791;SDS011;5953;52.372;9.918;2024-03-02T05:34:26;22.50;;;14.43;;
11791;SDS011;5953;52.372;9.918;2024-03-02T05:36:54;22.40;;;13.33;;
11791;SDS011;5953;52.372;9.918;2024-03-02T05:39:24;21.13;;;14.07;;
11791;SDS011;5953;52.372;9.918;2024-03-02T05:41:52;21.17;;;14.27;;
11791;SDS011;5953;52.372;9.918;2024-03-02T05:44:23;21.43;;;14.63;;
11791;SDS011;5953;52.372;9.918;2024-03-02T05:46:51;23.20;;;16.80;;
11791;SDS011;5953;52.372;9.918;2024-03-02T05:49:19;22.27;;;15.40;;
11791;SDS011;5953;52.372;9.918;2024-03-02T05:51:47;24.43;;;16.93;;
11791;SDS011;5953;52.372;9.918;2024-03-02T05:54:15;26.13;;;17.40;;
11791;SDS011;5953;52.372;9.918;2024-03-02T05:56:43;27.33;;;18.20;;
11791;SDS011;5953;52.372;9.918;2024-03-02T05:59:10;25.83;;;18.77;;
11791;SDS011;5953;52.372;9.918;2024-03-02T06:01:41;27.27;;;17.20;;
11791;SDS011;5953;52.372;9.918;2024-03-02T06:04:09;26.67;;;16.80;;
11791;SDS011;5953;52.372;9.918;2024-03-02T06:06:38;25.83;;;15.63;;
11791;SDS011;5953;52.372;9.918;2024-03-02T06:09:06;25.17;;;16.67;;
11791;SDS011;5953;52.372;9.918;2024-03-02T06:11:35;26.63;;;17.03;;
11791;SDS011;5953;52.372;9.918;2024-03-02T06:14:02;24.33;;;15.53;;
11791;SDS011;5953;52.372;9.918;2024-03-02T06:16:32;23.40;;;16.23;;
11791;SDS011;5953;52.372;9.918;2024-03-02T06:19:02;25.50;;;16.27;;
11791;SDS011;5953;52.372;9.918;2024-03-02T06:21:30;28.57;;;17.30;;
11791;SDS011;5953;52.372;9.918;2024-03-02T06:23:57;24.23;;;17.17;;
11791;SDS011;5953;52.372;9.918;2024-03-02T06:26:25;27.93;;;18.73;;
11791;SDS011;5953;52.372;9.918;2024-03-02T06:28:53;27.90;;;19.00;;
11791;SDS011;5953;52.372;9.918;2024-03-02T06:31:21;27.27;;;18.83;;
11791;SDS011;5953;52.372;9.918;2024-03-02T06:33:49;26.87;;;18.43;;
11791;SDS011;5953;52.372;9.918;2024-03-02T06:36:18;25.93;;;18.37;;
11791;SDS011;5953;52.372;9.918;2024-03-02T06:38:45;26.33;;;19.17;;
11791;SDS011;5953;52.372;9.918;2024-03-02T06:41:13;24.93;;;16.77;;
11791;SDS011;5953;52.372;9.918;2024-03-02T06:43:41;25.30;;;15.90;;
11791;SDS011;5953;52.372;9.918;2024-03-02T06:46:09;26.13;;;17.10;;
11791;SDS011;5953;52.372;9.918;2024-03-02T06:48:40;24.07;;;16.23;;
11791;SDS011;5953;52.372;9.918;2024-03-02T06:51:08;26.07;;;17.27;;
11791;SDS011;5953;52.372;9.918;2024-03-02T06:53:38;25.10;;;16.80;;
11791;SDS011;5953;52.372;9.918;2024-03-02T06:56:06;26.90;;;17.97;;
11791;SDS011;5953;52.372;9.918;2024-03-02T06:58:35;24.97;;;17.57;;
11791;SDS011;5953;52.372;9.918;2024-03-02T07:01:03;27.80;;;17.20;;
11791;SDS011;5953;52.372;9.918;2024-03-02T07:03:31;27.47;;;17.87;;
11791;SDS011;5953;52.372;9.918;2024-03-02T07:06:02;26.03;;;17.50;;
11791;SDS011;5953;52.372;9.918;2024-03-02T07:08:31;26.57;;;18.63;;
11791;SDS011;5953;52.372;9.918;2024-03-02T07:11:00;28.30;;;19.27;;
11791;SDS011;5953;52.372;9.918;2024-03-02T07:13:28;26.83;;;18.20;;
11791;SDS011;5953;52.372;9.918;2024-03-02T07:15:55;24.60;;;17.70;;
11791;SDS011;5953;52.372;9.918;2024-03-02T07:18:49;24.77;;;16.97;;
11791;SDS011;5953;52.372;9.918;2024-03-02T07:21:18;28.57;;;18.93;;
11791;SDS011;5953;52.372;9.918;2024-03-02T07:23:46;25.20;;;17.37;;
11791;SDS011;5953;52.372;9.918;2024-03-02T07:26:15;22.73;;;14.77;;
11791;SDS011;5953;52.372;9.918;2024-03-02T07:28:47;21.90;;;15.00;;
11791;SDS011;5953;52.372;9.918;2024-03-02T07:31:16;24.17;;;15.73;;
11791;SDS011;5953;52.372;9.918;2024-03-02T07:33:44;23.43;;;15.20;;
11791;SDS011;5953;52.372;9.918;2024-03-02T07:36:13;24.17;;;15.03;;
11791;SDS011;5953;52.372;9.918;2024-03-02T07:38:41;20.13;;;15.33;;
11791;SDS011;5953;52.372;9.918;2024-03-02T07:41:11;24.90;;;15.87;;
11791;SDS011;5953;52.372;9.918;2024-03-02T07:43:40;21.87;;;17.57;;
11791;SDS011;5953;52.372;9.918;2024-03-02T07:46:08;21.43;;;16.00;;
11791;SDS011;5953;52.372;9.918;2024-03-02T07:48:36;22.93;;;16.10;;
11791;SDS011;5953;52.372;9.918;2024-03-02T07:51:04;23.83;;;15.87;;
11791;SDS011;5953;52.372;9.918;2024-03-02T07:53:31;20.43;;;14.70;;
11791;SDS011;5953;52.372;9.918;2024-03-02T07:55:59;22.03;;;16.47;;
11791;SDS011;5953;52.372;9.918;2024-03-02T07:58:29;23.17;;;16.37;;
11791;SDS011;5953;52.372;9.918;2024-03-02T08:01:00;21.83;;;16.63;;
11791;SDS011;5953;52.372;9.918;2024-03-02T08:03:28;21.30;;;15.90;;
11791;SDS011;5953;52.372;9.918;2024-03-02T08:05:58;23.57;;;15.53;;
11791;SDS011;5953;52.372;9.918;2024-03-02T08:08:26;22.57;;;15.60;;
11791;SDS011;5953;52.372;9.918;2024-03-02T08:10:54;23.73;;;16.20;;
11791;SDS011;5953;52.372;9.918;2024-03-02T08:13:24;22.17;;;16.63;;
11791;SDS011;5953;52.372;9.918;2024-03-02T08:15:52;21.17;;;16.17;;
11791;SDS011;5953;52.372;9.918;2024-03-02T08:18:20;20.73;;;14.47;;
11791;SDS011;5953;52.372;9.918;2024-03-02T08:20:48;21.53;;;14.90;;
11791;SDS011;5953;52.372;9.918;2024-03-02T08:23:16;19.50;;;15.03;;
11791;SDS011;5953;52.372;9.918;2024-03-02T08:25:44;22.27;;;15.13;;
11791;SDS011;5953;52.372;9.918;2024-03-02T08:28:13;23.80;;;16.10;;
11791;SDS011;5953;52.372;9.918;2024-03-02T08:30:41;23.70;;;16.57;;
11791;SDS011;5953;52.372;9.918;2024-03-02T08:33:09;23.07;;;15.57;;
11791;SDS011;5953;52.372;9.918;2024-03-02T08:35:38;22.70;;;16.33;;
11791;SDS011;5953;52.372;9.918;2024-03-02T08:38:06;20.97;;;14.67;;
11791;SDS011;5953;52.372;9.918;2024-03-02T08:40:34;21.90;;;15.27;;
11791;SDS011;5953;52.372;9.918;2024-03-02T08:43:02;21.17;;;15.07;;
11791;SDS011;5953;52.372;9.918;2024-03-02T08:45:30;19.90;;;14.57;;
11791;SDS011;5953;52.372;9.918;2024-03-02T08:47:58;19.77;;;14.93;;
11791;SDS011;5953;52.372;9.918;2024-03-02T08:50:26;21.23;;;14.70;;
11791;SDS011;5953;52.372;9.918;2024-03-02T08:52:55;18.57;;;13.47;;
11791;SDS011;5953;52.372;9.918;2024-03-02T08:55:23;18.93;;;14.07;;
11791;SDS011;5953;52.372;9.918;2024-03-02T08:57:52;17.80;;;12.37;;
11791;SDS011;5953;52.372;9.918;2024-03-02T09:00:20;19.07;;;14.47;;
11791;SDS011;5953;52.372;9.918;2024-03-02T09:02:48;17.83;;;14.00;;
11791;SDS011;5953;52.372;9.918;2024-03-02T09:05:16;18.87;;;12.83;;
11791;SDS011;5953;52.372;9.918;2024-03-02T09:07:44;18.27;;;14.83;;
11791;SDS011;5953;52.372;9.918;2024-03-02T09:10:13;22.93;;;12.73;;
11791;SDS011;5953;52.372;9.918;2024-03-02T09:12:41;14.80;;;12.07;;
11791;SDS011;5953;52.372;9.918;2024-03-02T09:15:10;17.53;;;12.00;;
11791;SDS011;5953;52.372;9.918;2024-03-02T09:17:38;17.07;;;11.77;;
11791;SDS011;5953;52.372;9.918;2024-03-02T09:20:07;16.40;;;11.60;;
11791;SDS011;5953;52.372;9.918;2024-03-02T09:22:35;18.90;;;11.93;;
11791;SDS011;5953;52.372;9.918;2024-03-02T09:25:03;16.50;;;12.50;;
11791;SDS011;5953;52.372;9.918;2024-03-02T09:27:38;19.77;;;13.03;;
11791;SDS011;5953;52.372;9.918;2024-03-02T09:30:07;18.07;;;12.47;;
11791;SDS011;5953;52.372;9.918;2024-03-02T09:32:36;16.87;;;13.47;;
11791;SDS011;5953;52.372;9.918;2024-03-02T09:35:05;16.03;;;11.63;;
11791;SDS011;5953;52.372;9.918;2024-03-02T09:37:33;16.77;;;12.00;;
11791;SDS011;5953;52.372;9.918;2024-03-02T09:40:01;17.47;;;12.93;;
11791;SDS011;5953;52.372;9.918;2024-03-02T09:42:29;16.07;;;12.07;;
11791;SDS011;5953;52.372;9.918;2024-03-02T09:45:00;14.50;;;11.63;;
11791;SDS011;5953;52.372;9.918;2024-03-02T09:47:28;15.67;;;10.97;;
11791;SDS011;5953;52.372;9.918;2024-03-02T09:49:56;15.63;;;11.50;;
11791;SDS011;5953;52.372;9.918;2024-03-02T09:52:24;14.50;;;10.53;;
11791;SDS011;5953;52.372;9.918;2024-03-02T09:54:52;14.70;;;11.33;;
11791;SDS011;5953;52.372;9.918;2024-03-02T09:57:20;16.33;;;11.23;;
11791;SDS011;5953;52.372;9.918;2024-03-02T09:59:47;12.00;;;9.73;;
11791;SDS011;5953;52.372;9.918;2024-03-02T10:02:16;12.97;;;9.13;;
11791;SDS011;5953;52.372;9.918;2024-03-02T10:04:45;13.43;;;10.77;;
11791;SDS011;5953;52.372;9.918;2024-03-02T10:07:13;14.37;;;9.60;;
11791;SDS011;5953;52.372;9.918;2024-03-02T10:09:43;15.30;;;9.20;;
11791;SDS011;5953;52.372;9.918;2024-03-02T10:12:13;14.30;;;10.37;;
11791;SDS011;5953;52.372;9.918;2024-03-02T10:14:42;13.70;;;9.70;;
11791;SDS011;5953;52.372;9.918;2024-03-02T10:17:10;12.80;;;9.17;;
11791;SDS011;5953;52.372;9.918;2024-03-02T10:19:40;12.33;;;9.33;;
11791;SDS011;5953;52.372;9.918;2024-03-02T10:22:08;13.03;;;9.47;;
11791;SDS011;5953;52.372;9.918;2024-03-02T10:24:37;13.80;;;8.63;;
11791;SDS011;5953;52.372;9.918;2024-03-02T10:27:07;12.77;;;8.50;;
11791;SDS011;5953;52.372;9.918;2024-03-02T10:29:36;13.20;;;9.13;;
11791;SDS011;5953;52.372;9.918;2024-03-02T10:32:06;14.20;;;9.57;;
11791;SDS011;5953;52.372;9.918;2024-03-02T10:34:36;12.90;;;9.03;;
11791;SDS011;5953;52.372;9.918;2024-03-02T10:37:06;9.83;;;8.13;;
11791;SDS011;5953;52.372;9.918;2024-03-02T10:39:34;11.57;;;7.83;;
11791;SDS011;5953;52.372;9.918;2024-03-02T10:42:03;14.40;;;8.57;;
11791;SDS011;5953;52.372;9.918;2024-03-02T10:44:32;11.13;;;7.93;;
11791;SDS011;5953;52.372;9.918;2024-03-02T10:47:01;11.57;;;8.53;;
11791;SDS011;5953;52.372;9.918;2024-03-02T10:49:31;13.33;;;8.23;;
11791;SDS011;5953;52.372;9.918;2024-03-02T10:52:00;11.67;;;9.30;;
11791;SDS011;5953;52.372;9.918;2024-03-02T10:54:30;12.27;;;8.03;;
11791;SDS011;5953;52.372;9.918;2024-03-02T10:57:03;10.00;;;8.33;;
11791;SDS011;5953;52.372;9.918;2024-03-02T10:59:36;13.13;;;8.73;;
11791;SDS011;5953;52.372;9.918;2024-03-02T11:02:06;12.43;;;9.20;;
11791;SDS011;5953;52.372;9.918;2024-03-02T11:04:34;12.00;;;9.13;;
11791;SDS011;5953;52.372;9.918;2024-03-02T11:07:04;12.00;;;8.97;;
11791;SDS011;5953;52.372;9.918;2024-03-02T11:09:37;11.43;;;8.87;;
11791;SDS011;5953;52.372;9.918;2024-03-02T11:12:09;12.23;;;9.13;;
11791;SDS011;5953;52.372;9.918;2024-03-02T11:14:41;10.77;;;9.10;;
11791;SDS011;5953;52.372;9.918;2024-03-02T11:17:10;12.03;;;9.67;;
11791;SDS011;5953;52.372;9.918;2024-03-02T11:19:42;13.43;;;8.23;;
11791;SDS011;5953;52.372;9.918;2024-03-02T11:22:11;12.03;;;9.17;;
11791;SDS011;5953;52.372;9.918;2024-03-02T11:24:41;11.60;;;9.07;;
11791;SDS011;5953;52.372;9.918;2024-03-02T11:27:20;12.57;;;8.87;;
11791;SDS011;5953;52.372;9.918;2024-03-02T11:33:24;8.83;;;6.83;;
11791;SDS011;5953;52.372;9.918;2024-03-02T11:35:57;11.23;;;7.17;;
11791;SDS011;5953;52.372;9.918;2024-03-02T11:38:31;10.73;;;8.87;;
11791;SDS011;5953;52.372;9.918;2024-03-02T11:41:01;11.13;;;8.00;;
11791;SDS011;5953;52.372;9.918;2024-03-02T11:43:30;11.40;;;9.20;;
11791;SDS011;5953;52.372;9.918;2024-03-02T11:45:59;11.97;;;8.33;;
11791;SDS011;5953;52.372;9.918;2024-03-02T11:48:31;10.33;;;7.70;;
11791;SDS011;5953;52.372;9.918;2024-03-02T11:51:00;10.40;;;7.93;;
11791;SDS011;5953;52.372;9.918;2024-03-02T11:53:28;10.80;;;8.57;;
11791;SDS011;5953;52.372;9.918;2024-03-02T11:56:03;10.53;;;8.17;;
11791;SDS011;5953;52.372;9.918;2024-03-02T11:58:35;10.77;;;8.60;;
11791;SDS011;5953;52.372;9.918;2024-03-02T12:01:04;14.90;;;10.20;;
11791;SDS011;5953;52.372;9.918;2024-03-02T12:03:32;12.10;;;8.20;;
11791;SDS011;5953;52.372;9.918;2024-03-02T12:06:01;11.77;;;8.40;;
11791;SDS011;5953;52.372;9.918;2024-03-02T12:08:30;10.87;;;8.30;;
11791;SDS011;5953;52.372;9.918;2024-03-02T12:10:58;10.70;;;8.07;;
11791;SDS011;5953;52.372;9.918;2024-03-02T12:13:31;9.63;;;6.97;;
11791;SDS011;5953;52.372;9.918;2024-03-02T12:15:59;11.33;;;8.30;;
11791;SDS011;5953;52.372;9.918;2024-03-02T12:18:27;11.50;;;7.43;;
11791;SDS011;5953;52.372;9.918;2024-03-02T12:20:55;10.47;;;7.70;;
11791;SDS011;5953;52.372;9.918;2024-03-02T12:23:24;12.57;;;7.50;;
11791;SDS011;5953;52.372;9.918;2024-03-02T12:25:54;11.17;;;8.80;;
11791;SDS011;5953;52.372;9.918;2024-03-02T12:28:22;11.63;;;8.33;;
11791;SDS011;5953;52.372;9.918;2024-03-02T12:30:52;10.70;;;8.20;;
11791;SDS011;5953;52.372;9.918;2024-03-02T12:33:20;11.73;;;8.40;;
11791;SDS011;5953;52.372;9.918;2024-03-02T12:35:49;10.43;;;7.57;;
11791;SDS011;5953;52.372;9.918;2024-03-02T12:38:17;10.20;;;7.90;;
11791;SDS011;5953;52.372;9.918;2024-03-02T12:40:47;10.80;;;7.90;;
11791;SDS011;5953;52.372;9.918;2024-03-02T12:43:15;9.67;;;7.97;;
11791;SDS011;5953;52.372;9.918;2024-03-02T12:45:43;11.63;;;7.47;;
11791;SDS011;5953;52.372;9.918;2024-03-02T12:48:12;10.33;;;7.13;;
11791;SDS011;5953;52.372;9.918;2024-03-02T12:50:41;9.67;;;6.70;;
11791;SDS011;5953;52.372;9.918;2024-03-02T12:53:13;9.30;;;6.10;;
11791;SDS011;5953;52.372;9.918;2024-03-02T12:55:43;7.60;;;6.17;;
11791;SDS011;5953;52.372;9.918;2024-03-02T12:58:16;9.90;;;7.67;;
11791;SDS011;5953;52.372;9.918;2024-03-02T13:00:44;8.80;;;6.80;;
11791;SDS011;5953;52.372;9.918;2024-03-02T13:03:14;10.03;;;7.77;;
11791;SDS011;5953;52.372;9.918;2024-03-02T13:05:47;9.70;;;6.30;;
11791;SDS011;5953;52.372;9.918;2024-03-02T13:08:16;8.93;;;6.07;;
11791;SDS011;5953;52.372;9.918;2024-03-02T13:10:44;9.97;;;7.40;;
11791;SDS011;5953;52.372;9.918;2024-03-02T13:13:12;9.97;;;7.17;;
11791;SDS011;5953;52.372;9.918;2024-03-02T13:15:43;8.83;;;6.50;;
11791;SDS011;5953;52.372;9.918;2024-03-02T13:18:11;9.00;;;6.70;;
11791;SDS011;5953;52.372;9.918;2024-03-02T13:20:41;9.33;;;6.63;;
11791;SDS011;5953;52.372;9.918;2024-03-02T13:23:09;8.80;;;6.70;;
11791;SDS011;5953;52.372;9.918;2024-03-02T13:25:36;8.93;;;6.00;;
11791;SDS011;5953;52.372;9.918;2024-03-02T13:28:04;12.13;;;6.77;;
11791;SDS011;5953;52.372;9.918;2024-03-02T13:30:33;7.13;;;5.80;;
11791;SDS011;5953;52.372;9.918;2024-03-02T13:33:01;10.67;;;6.57;;
11791;SDS011;5953;52.372;9.918;2024-03-02T13:35:30;7.57;;;6.77;;
11791;SDS011;5953;52.372;9.918;2024-03-02T13:37:58;7.43;;;5.43;;
11791;SDS011;5953;52.372;9.918;2024-03-02T13:40:26;6.83;;;5.10;;
11791;SDS011;5953;52.372;9.918;2024-03-02T13:42:55;7.60;;;4.50;;
11791;SDS011;5953;52.372;9.918;2024-03-02T13:45:23;5.37;;;4.63;;
11791;SDS011;5953;52.372;9.918;2024-03-02T13:47:51;7.03;;;5.50;;
11791;SDS011;5953;52.372;9.918;2024-03-02T13:50:19;7.43;;;5.93;;
11791;SDS011;5953;52.372;9.918;2024-03-02T13:52:48;6.13;;;5.30;;
11791;SDS011;5953;52.372;9.918;2024-03-02T13:55:16;6.37;;;4.30;;
11791;SDS011;5953;52.372;9.918;2024-03-02T13:57:44;4.50;;;3.70;;
11791;SDS011;5953;52.372;9.918;2024-03-02T14:00:14;5.50;;;3.80;;
11791;SDS011;5953;52.372;9.918;2024-03-02T14:02:42;4.83;;;3.97;;
11791;SDS011;5953;52.372;9.918;2024-03-02T14:05:10;4.87;;;3.70;;
11791;SDS011;5953;52.372;9.918;2024-03-02T14:07:40;4.10;;;3.33;;
11791;SDS011;5953;52.372;9.918;2024-03-02T14:10:10;4.87;;;3.03;;
11791;SDS011;5953;52.372;9.918;2024-03-02T14:12:38;5.10;;;3.83;;
11791;SDS011;5953;52.372;9.918;2024-03-02T14:15:06;4.73;;;3.73;;
11791;SDS011;5953;52.372;9.918;2024-03-02T14:17:34;6.37;;;3.37;;
11791;SDS011;5953;52.372;9.918;2024-03-02T14:20:02;5.97;;;4.40;;
11791;SDS011;5953;52.372;9.918;2024-03-02T14:22:31;4.37;;;3.80;;
11791;SDS011;5953;52.372;9.918;2024-03-02T14:25:00;4.33;;;3.50;;
11791;SDS011;5953;52.372;9.918;2024-03-02T14:27:29;5.17;;;3.77;;
11791;SDS011;5953;52.372;9.918;2024-03-02T14:30:17;5.37;;;3.43;;
11791;SDS011;5953;52.372;9.918;2024-03-02T14:32:45;4.87;;;3.63;;
11791;SDS011;5953;52.372;9.918;2024-03-02T14:35:13;4.47;;;3.60;;
11791;SDS011;5953;52.372;9.918;2024-03-02T14:37:41;4.03;;;2.80;;
11791;SDS011;5953;52.372;9.918;2024-03-02T14:40:09;4.30;;;3.40;;
11791;SDS011;5953;52.372;9.918;2024-03-02T14:42:43;5.07;;;3.20;;
11791;SDS011;5953;52.372;9.918;2024-03-02T14:45:13;6.03;;;3.90;;
11791;SDS011;5953;52.372;9.918;2024-03-02T14:47:41;6.03;;;4.30;;
11791;SDS011;5953;52.372;9.918;2024-03-02T14:50:09;7.30;;;4.77;;
11791;SDS011;5953;52.372;9.918;2024-03-02T14:52:37;6.67;;;4.73;;
11791;SDS011;5953;52.372;9.918;2024-03-02T14:55:07;7.67;;;5.37;;